Pembroke, New York
Current Conditions -  °F | °C
As of 12:54 AM on Wednesday 22 Oct 2014 (Local Time) from KBUF Reporting Station
Drizzle Drizzle  
Wind Chill: 38°   Ceiling: 800
Heat Index: 44°   Visibility: 5mi
Dew Point: 42°   Wind: 13mph
Humidity: 93%   Direction: 20°NNE
Pressure: 30.1"   Gusts: 20mph
Location:  42.975°N, 78.3857°W
Report Text: KBUF 220454Z 02011G17KT 5SM -DZ BR OVC008 07/06 A3010 RMK AO2 CIG 004V010 SLP197 P0001 T00670056 401220067
Loading
Personal Weather Stations






























Interactive Weather Map
Tropical Storm Tracking
New forecast layout! Learn more

10-Day Weather Forecast

Advertisements
Track Severe Weather on mobile